sensor_id;sensor_type;location;lat;lon;timestamp;P1;durP1;ratioP1;P2;durP2;ratioP2
17065;SDS011;23120;52.336;21.182;2022-10-03T00:01:34;11.13;;;8.93;;
17065;SDS011;23120;52.336;21.182;2022-10-03T00:04:13;11.07;;;8.97;;
17065;SDS011;23120;52.336;21.182;2022-10-03T00:06:50;14.10;;;9.00;;
17065;SDS011;23120;52.336;21.182;2022-10-03T00:09:31;11.50;;;8.17;;
17065;SDS011;23120;52.336;21.182;2022-10-03T00:12:19;9.67;;;8.63;;
17065;SDS011;23120;52.336;21.182;2022-10-03T00:15:01;9.20;;;7.80;;
17065;SDS011;23120;52.336;21.182;2022-10-03T00:17:40;9.93;;;7.93;;
17065;SDS011;23120;52.336;21.182;2022-10-03T00:20:28;15.97;;;8.23;;
17065;SDS011;23120;52.336;21.182;2022-10-03T00:23:07;10.27;;;8.40;;
17065;SDS011;23120;52.336;21.182;2022-10-03T00:25:42;11.50;;;8.60;;
17065;SDS011;23120;52.336;21.182;2022-10-03T00:28:22;9.53;;;7.57;;
17065;SDS011;23120;52.336;21.182;2022-10-03T00:31:12;9.30;;;8.07;;
17065;SDS011;23120;52.336;21.182;2022-10-03T00:33:45;8.30;;;7.47;;
17065;SDS011;23120;52.336;21.182;2022-10-03T00:36:23;8.80;;;7.60;;
17065;SDS011;23120;52.336;21.182;2022-10-03T00:39:07;9.17;;;7.60;;
17065;SDS011;23120;52.336;21.182;2022-10-03T00:42:00;12.60;;;7.87;;
17065;SDS011;23120;52.336;21.182;2022-10-03T00:45:07;10.00;;;7.70;;
17065;SDS011;23120;52.336;21.182;2022-10-03T00:48:07;12.87;;;8.83;;
17065;SDS011;23120;52.336;21.182;2022-10-03T00:53:59;8.87;;;8.03;;
17065;SDS011;23120;52.336;21.182;2022-10-03T00:56:51;10.00;;;8.80;;
17065;SDS011;23120;52.336;21.182;2022-10-03T00:59:32;10.20;;;9.10;;
17065;SDS011;23120;52.336;21.182;2022-10-03T01:02:16;10.13;;;9.13;;
17065;SDS011;23120;52.336;21.182;2022-10-03T01:04:53;10.40;;;9.30;;
17065;SDS011;23120;52.336;21.182;2022-10-03T01:07:29;11.90;;;9.13;;
17065;SDS011;23120;52.336;21.182;2022-10-03T01:10:14;12.30;;;9.40;;
17065;SDS011;23120;52.336;21.182;2022-10-03T01:12:54;10.13;;;9.07;;
17065;SDS011;23120;52.336;21.182;2022-10-03T01:15:35;9.57;;;8.40;;
17065;SDS011;23120;52.336;21.182;2022-10-03T01:18:16;9.53;;;8.33;;
17065;SDS011;23120;52.336;21.182;2022-10-03T01:20:53;12.37;;;8.00;;
17065;SDS011;23120;52.336;21.182;2022-10-03T01:26:50;9.97;;;7.80;;
17065;SDS011;23120;52.336;21.182;2022-10-03T01:29:23;8.83;;;7.73;;
17065;SDS011;23120;52.336;21.182;2022-10-03T01:32:20;10.10;;;7.77;;
17065;SDS011;23120;52.336;21.182;2022-10-03T01:34:53;12.20;;;7.83;;
17065;SDS011;23120;52.336;21.182;2022-10-03T01:37:26;9.07;;;8.17;;
17065;SDS011;23120;52.336;21.182;2022-10-03T01:39:58;11.07;;;8.30;;
17065;SDS011;23120;52.336;21.182;2022-10-03T01:42:38;9.60;;;7.57;;
17065;SDS011;23120;52.336;21.182;2022-10-03T01:45:20;8.87;;;8.00;;
17065;SDS011;23120;52.336;21.182;2022-10-03T01:47:52;8.00;;;7.30;;
17065;SDS011;23120;52.336;21.182;2022-10-03T01:50:27;8.10;;;7.30;;
17065;SDS011;23120;52.336;21.182;2022-10-03T01:53:02;10.27;;;7.63;;
17065;SDS011;23120;52.336;21.182;2022-10-03T01:55:50;7.97;;;7.17;;
17065;SDS011;23120;52.336;21.182;2022-10-03T01:58:24;7.70;;;7.00;;
17065;SDS011;23120;52.336;21.182;2022-10-03T02:00:58;8.20;;;7.43;;
17065;SDS011;23120;52.336;21.182;2022-10-03T02:03:34;10.27;;;7.53;;
17065;SDS011;23120;52.336;21.182;2022-10-03T02:06:05;9.53;;;7.47;;
17065;SDS011;23120;52.336;21.182;2022-10-03T02:08:45;12.07;;;7.17;;
17065;SDS011;23120;52.336;21.182;2022-10-03T02:11:22;10.70;;;7.17;;
17065;SDS011;23120;52.336;21.182;2022-10-03T02:13:57;9.73;;;7.70;;
17065;SDS011;23120;52.336;21.182;2022-10-03T02:16:33;11.33;;;7.40;;
17065;SDS011;23120;52.336;21.182;2022-10-03T02:19:10;8.40;;;6.70;;
17065;SDS011;23120;52.336;21.182;2022-10-03T02:21:47;9.17;;;6.63;;
17065;SDS011;23120;52.336;21.182;2022-10-03T02:24:23;11.50;;;7.47;;
17065;SDS011;23120;52.336;21.182;2022-10-03T02:27:18;7.30;;;6.60;;
17065;SDS011;23120;52.336;21.182;2022-10-03T02:30:08;8.83;;;6.47;;
17065;SDS011;23120;52.336;21.182;2022-10-03T02:36:01;7.93;;;6.30;;
17065;SDS011;23120;52.336;21.182;2022-10-03T02:42:18;7.00;;;6.30;;
17065;SDS011;23120;52.336;21.182;2022-10-03T02:45:00;8.30;;;6.17;;
17065;SDS011;23120;52.336;21.182;2022-10-03T02:48:01;8.93;;;7.07;;
17065;SDS011;23120;52.336;21.182;2022-10-03T02:50:54;7.10;;;6.43;;
17065;SDS011;23120;52.336;21.182;2022-10-03T02:54:07;10.30;;;6.90;;
17065;SDS011;23120;52.336;21.182;2022-10-03T03:00:31;8.00;;;5.93;;
17065;SDS011;23120;52.336;21.182;2022-10-03T03:03:11;8.20;;;6.03;;
17065;SDS011;23120;52.336;21.182;2022-10-03T03:06:18;7.77;;;5.40;;
17065;SDS011;23120;52.336;21.182;2022-10-03T03:09:21;8.07;;;4.97;;
17065;SDS011;23120;52.336;21.182;2022-10-03T03:18:16;5.40;;;4.37;;
17065;SDS011;23120;52.336;21.182;2022-10-03T03:21:00;10.23;;;4.23;;
17065;SDS011;23120;52.336;21.182;2022-10-03T03:23:52;8.30;;;4.17;;
17065;SDS011;23120;52.336;21.182;2022-10-03T03:26:44;5.23;;;4.73;;
17065;SDS011;23120;52.336;21.182;2022-10-03T03:29:30;4.67;;;4.27;;
17065;SDS011;23120;52.336;21.182;2022-10-03T03:32:06;5.20;;;4.70;;
17065;SDS011;23120;52.336;21.182;2022-10-03T03:34:42;8.20;;;4.90;;
17065;SDS011;23120;52.336;21.182;2022-10-03T03:37:18;9.50;;;5.10;;
17065;SDS011;23120;52.336;21.182;2022-10-03T03:39:58;8.47;;;5.30;;
17065;SDS011;23120;52.336;21.182;2022-10-03T03:42:48;9.93;;;5.17;;
17065;SDS011;23120;52.336;21.182;2022-10-03T03:45:41;6.37;;;5.77;;
17065;SDS011;23120;52.336;21.182;2022-10-03T03:48:23;7.13;;;6.27;;
17065;SDS011;23120;52.336;21.182;2022-10-03T03:51:16;7.03;;;6.40;;
17065;SDS011;23120;52.336;21.182;2022-10-03T03:53:56;8.80;;;6.10;;
17065;SDS011;23120;52.336;21.182;2022-10-03T03:56:59;8.23;;;6.73;;
17065;SDS011;23120;52.336;21.182;2022-10-03T03:59:42;7.07;;;6.17;;
17065;SDS011;23120;52.336;21.182;2022-10-03T04:02:28;7.93;;;6.23;;
17065;SDS011;23120;52.336;21.182;2022-10-03T04:05:07;8.77;;;6.60;;
17065;SDS011;23120;52.336;21.182;2022-10-03T04:07:50;7.30;;;6.50;;
17065;SDS011;23120;52.336;21.182;2022-10-03T04:10:40;9.67;;;7.70;;
17065;SDS011;23120;52.336;21.182;2022-10-03T04:13:30;8.13;;;7.33;;
17065;SDS011;23120;52.336;21.182;2022-10-03T04:19:37;8.00;;;7.20;;
17065;SDS011;23120;52.336;21.182;2022-10-03T04:22:18;8.73;;;7.80;;
17065;SDS011;23120;52.336;21.182;2022-10-03T04:25:04;10.73;;;7.27;;
17065;SDS011;23120;52.336;21.182;2022-10-03T04:27:51;9.90;;;6.60;;
17065;SDS011;23120;52.336;21.182;2022-10-03T04:30:43;12.37;;;8.07;;
17065;SDS011;23120;52.336;21.182;2022-10-03T04:33:25;8.57;;;7.73;;
17065;SDS011;23120;52.336;21.182;2022-10-03T04:39:01;9.43;;;8.50;;
17065;SDS011;23120;52.336;21.182;2022-10-03T04:41:37;9.13;;;8.23;;
17065;SDS011;23120;52.336;21.182;2022-10-03T04:44:14;9.67;;;8.77;;
17065;SDS011;23120;52.336;21.182;2022-10-03T04:46:53;9.60;;;8.60;;
17065;SDS011;23120;52.336;21.182;2022-10-03T04:49:23;11.30;;;9.10;;
17065;SDS011;23120;52.336;21.182;2022-10-03T04:51:57;9.50;;;8.53;;
17065;SDS011;23120;52.336;21.182;2022-10-03T04:54:30;9.70;;;8.70;;
17065;SDS011;23120;52.336;21.182;2022-10-03T04:57:13;9.73;;;8.50;;
17065;SDS011;23120;52.336;21.182;2022-10-03T04:59:48;9.53;;;8.50;;
17065;SDS011;23120;52.336;21.182;2022-10-03T05:02:44;9.90;;;8.97;;
17065;SDS011;23120;52.336;21.182;2022-10-03T05:05:24;9.40;;;8.47;;
17065;SDS011;23120;52.336;21.182;2022-10-03T05:08:01;9.97;;;8.97;;
17065;SDS011;23120;52.336;21.182;2022-10-03T05:10:54;8.80;;;8.00;;
17065;SDS011;23120;52.336;21.182;2022-10-03T05:13:35;9.03;;;7.93;;
17065;SDS011;23120;52.336;21.182;2022-10-03T05:16:15;9.97;;;8.57;;
17065;SDS011;23120;52.336;21.182;2022-10-03T05:18:50;8.03;;;7.23;;
17065;SDS011;23120;52.336;21.182;2022-10-03T05:21:29;9.63;;;8.23;;
17065;SDS011;23120;52.336;21.182;2022-10-03T05:24:01;8.13;;;7.53;;
17065;SDS011;23120;52.336;21.182;2022-10-03T05:26:41;8.93;;;7.37;;
17065;SDS011;23120;52.336;21.182;2022-10-03T05:29:16;7.63;;;6.90;;
17065;SDS011;23120;52.336;21.182;2022-10-03T05:31:54;8.80;;;6.90;;
17065;SDS011;23120;52.336;21.182;2022-10-03T05:34:33;7.97;;;6.90;;
17065;SDS011;23120;52.336;21.182;2022-10-03T05:37:27;9.73;;;7.07;;
17065;SDS011;23120;52.336;21.182;2022-10-03T05:40:11;7.43;;;6.73;;
17065;SDS011;23120;52.336;21.182;2022-10-03T05:42:46;7.63;;;6.13;;
17065;SDS011;23120;52.336;21.182;2022-10-03T05:45:27;8.37;;;6.63;;
17065;SDS011;23120;52.336;21.182;2022-10-03T05:48:06;7.50;;;6.70;;
17065;SDS011;23120;52.336;21.182;2022-10-03T05:50:46;7.57;;;6.40;;
17065;SDS011;23120;52.336;21.182;2022-10-03T05:53:50;8.47;;;7.07;;
17065;SDS011;23120;52.336;21.182;2022-10-03T05:56:32;12.33;;;7.37;;
17065;SDS011;23120;52.336;21.182;2022-10-03T05:59:20;8.70;;;6.13;;
17065;SDS011;23120;52.336;21.182;2022-10-03T06:02:11;8.43;;;5.30;;
17065;SDS011;23120;52.336;21.182;2022-10-03T06:05:00;5.73;;;4.80;;
17065;SDS011;23120;52.336;21.182;2022-10-03T06:07:45;4.73;;;4.27;;
17065;SDS011;23120;52.336;21.182;2022-10-03T06:10:26;5.67;;;4.13;;
17065;SDS011;23120;52.336;21.182;2022-10-03T06:13:10;5.13;;;4.13;;
17065;SDS011;23120;52.336;21.182;2022-10-03T06:15:47;6.00;;;4.13;;
17065;SDS011;23120;52.336;21.182;2022-10-03T06:18:22;5.73;;;3.80;;
17065;SDS011;23120;52.336;21.182;2022-10-03T06:21:07;5.33;;;3.87;;
17065;SDS011;23120;52.336;21.182;2022-10-03T06:30:24;5.27;;;3.23;;
17065;SDS011;23120;52.336;21.182;2022-10-03T06:36:26;4.13;;;3.23;;
17065;SDS011;23120;52.336;21.182;2022-10-03T06:48:33;4.23;;;2.77;;
17065;SDS011;23120;52.336;21.182;2022-10-03T06:54:35;4.40;;;2.97;;
17065;SDS011;23120;52.336;21.182;2022-10-03T06:57:43;7.07;;;3.07;;
17065;SDS011;23120;52.336;21.182;2022-10-03T07:00:54;4.23;;;2.50;;
17065;SDS011;23120;52.336;21.182;2022-10-03T07:03:53;4.33;;;2.27;;
17065;SDS011;23120;52.336;21.182;2022-10-03T07:06:40;3.27;;;2.10;;
17065;SDS011;23120;52.336;21.182;2022-10-03T07:12:31;4.10;;;3.10;;
17065;SDS011;23120;52.336;21.182;2022-10-03T07:15:24;3.33;;;2.90;;
17065;SDS011;23120;52.336;21.182;2022-10-03T07:24:01;4.93;;;3.30;;
17065;SDS011;23120;52.336;21.182;2022-10-03T07:26:55;3.50;;;3.20;;
17065;SDS011;23120;52.336;21.182;2022-10-03T07:29:45;6.37;;;3.73;;
17065;SDS011;23120;52.336;21.182;2022-10-03T07:35:50;5.63;;;2.70;;
17065;SDS011;23120;52.336;21.182;2022-10-03T07:42:04;5.00;;;3.10;;
17065;SDS011;23120;52.336;21.182;2022-10-03T07:44:58;4.40;;;3.13;;
17065;SDS011;23120;52.336;21.182;2022-10-03T07:47:53;6.80;;;3.10;;
17065;SDS011;23120;52.336;21.182;2022-10-03T07:50:49;5.53;;;3.33;;
17065;SDS011;23120;52.336;21.182;2022-10-03T07:53:33;5.83;;;3.70;;
17065;SDS011;23120;52.336;21.182;2022-10-03T07:56:20;7.17;;;3.70;;
17065;SDS011;23120;52.336;21.182;2022-10-03T07:59:26;6.17;;;4.10;;
17065;SDS011;23120;52.336;21.182;2022-10-03T08:02:20;5.23;;;3.40;;
17065;SDS011;23120;52.336;21.182;2022-10-03T08:05:17;6.00;;;3.30;;
17065;SDS011;23120;52.336;21.182;2022-10-03T08:14:00;7.60;;;5.13;;
17065;SDS011;23120;52.336;21.182;2022-10-03T08:16:50;8.33;;;4.70;;
17065;SDS011;23120;52.336;21.182;2022-10-03T08:22:51;8.50;;;4.30;;
17065;SDS011;23120;52.336;21.182;2022-10-03T08:25:38;9.07;;;4.83;;
17065;SDS011;23120;52.336;21.182;2022-10-03T08:28:22;8.27;;;4.83;;
17065;SDS011;23120;52.336;21.182;2022-10-03T08:31:16;10.30;;;5.37;;
17065;SDS011;23120;52.336;21.182;2022-10-03T08:34:08;8.17;;;5.10;;
17065;SDS011;23120;52.336;21.182;2022-10-03T08:37:05;7.20;;;4.43;;
17065;SDS011;23120;52.336;21.182;2022-10-03T08:46:05;3.87;;;3.33;;
17065;SDS011;23120;52.336;21.182;2022-10-03T08:48:44;4.50;;;3.43;;
17065;SDS011;23120;52.336;21.182;2022-10-03T08:54:36;4.83;;;3.20;;
17065;SDS011;23120;52.336;21.182;2022-10-03T08:57:37;3.63;;;3.17;;
17065;SDS011;23120;52.336;21.182;2022-10-03T09:00:37;3.70;;;3.40;;
17065;SDS011;23120;52.336;21.182;2022-10-03T09:03:39;4.37;;;3.13;;
17065;SDS011;23120;52.336;21.182;2022-10-03T09:06:42;3.83;;;3.00;;
17065;SDS011;23120;52.336;21.182;2022-10-03T09:12:41;5.83;;;4.30;;
17065;SDS011;23120;52.336;21.182;2022-10-03T09:18:46;4.50;;;3.67;;
17065;SDS011;23120;52.336;21.182;2022-10-03T09:21:37;8.40;;;4.53;;
17065;SDS011;23120;52.336;21.182;2022-10-03T09:24:25;5.27;;;4.13;;
17065;SDS011;23120;52.336;21.182;2022-10-03T09:27:21;6.43;;;4.80;;
17065;SDS011;23120;52.336;21.182;2022-10-03T09:30:06;8.00;;;4.93;;
17065;SDS011;23120;52.336;21.182;2022-10-03T09:36:09;10.33;;;4.90;;
17065;SDS011;23120;52.336;21.182;2022-10-03T09:38:52;5.33;;;4.13;;
17065;SDS011;23120;52.336;21.182;2022-10-03T09:41:41;7.60;;;4.30;;
17065;SDS011;23120;52.336;21.182;2022-10-03T09:44:41;4.40;;;3.90;;
17065;SDS011;23120;52.336;21.182;2022-10-03T09:53:28;5.50;;;4.40;;
17065;SDS011;23120;52.336;21.182;2022-10-03T09:56:21;4.90;;;4.40;;
17065;SDS011;23120;52.336;21.182;2022-10-03T09:59:05;5.23;;;4.00;;
17065;SDS011;23120;52.336;21.182;2022-10-03T10:01:46;3.73;;;3.43;;
17065;SDS011;23120;52.336;21.182;2022-10-03T10:07:19;4.20;;;3.40;;
17065;SDS011;23120;52.336;21.182;2022-10-03T10:10:34;3.63;;;3.20;;
17065;SDS011;23120;52.336;21.182;2022-10-03T10:16:36;5.10;;;3.17;;
17065;SDS011;23120;52.336;21.182;2022-10-03T10:22:37;4.23;;;2.93;;
17065;SDS011;23120;52.336;21.182;2022-10-03T10:28:49;4.33;;;3.67;;
17065;SDS011;23120;52.336;21.182;2022-10-03T10:31:42;6.03;;;3.30;;
17065;SDS011;23120;52.336;21.182;2022-10-03T10:34:41;3.37;;;2.70;;
17065;SDS011;23120;52.336;21.182;2022-10-03T10:37:48;2.53;;;2.33;;
17065;SDS011;23120;52.336;21.182;2022-10-03T10:40:40;3.47;;;2.27;;
17065;SDS011;23120;52.336;21.182;2022-10-03T10:46:39;3.57;;;2.10;;
17065;SDS011;23120;52.336;21.182;2022-10-03T10:52:36;2.60;;;1.83;;
17065;SDS011;23120;52.336;21.182;2022-10-03T10:55:35;5.73;;;2.17;;
17065;SDS011;23120;52.336;21.182;2022-10-03T10:58:41;3.00;;;2.03;;
17065;SDS011;23120;52.336;21.182;2022-10-03T11:01:57;2.67;;;1.60;;
17065;SDS011;23120;52.336;21.182;2022-10-03T11:08:54;1.43;;;1.27;;
17065;SDS011;23120;52.336;21.182;2022-10-03T11:18:36;2.53;;;2.30;;
17065;SDS011;23120;52.336;21.182;2022-10-03T12:46:36;3.80;;;1.73;;
17065;SDS011;23120;52.336;21.182;2022-10-03T12:49:13;4.57;;;1.60;;
17065;SDS011;23120;52.336;21.182;2022-10-03T12:51:46;3.00;;;1.50;;
17065;SDS011;23120;52.336;21.182;2022-10-03T12:54:26;2.80;;;1.77;;
17065;SDS011;23120;52.336;21.182;2022-10-03T12:57:31;3.20;;;1.80;;
17065;SDS011;23120;52.336;21.182;2022-10-03T13:00:15;2.27;;;1.70;;
17065;SDS011;23120;52.336;21.182;2022-10-03T13:02:50;1.50;;;1.40;;
17065;SDS011;23120;52.336;21.182;2022-10-03T13:05:31;3.00;;;1.40;;
17065;SDS011;23120;52.336;21.182;2022-10-03T13:08:15;1.40;;;1.30;;
17065;SDS011;23120;52.336;21.182;2022-10-03T13:10:52;2.50;;;1.40;;
17065;SDS011;23120;52.336;21.182;2022-10-03T13:13:26;1.60;;;1.13;;
17065;SDS011;23120;52.336;21.182;2022-10-03T13:16:02;1.63;;;1.47;;
17065;SDS011;23120;52.336;21.182;2022-10-03T13:18:43;2.03;;;1.27;;
17065;SDS011;23120;52.336;21.182;2022-10-03T13:21:17;4.77;;;1.53;;
17065;SDS011;23120;52.336;21.182;2022-10-03T13:23:52;1.53;;;1.27;;
17065;SDS011;23120;52.336;21.182;2022-10-03T13:26:24;2.63;;;1.10;;
17065;SDS011;23120;52.336;21.182;2022-10-03T13:29:07;3.03;;;1.40;;
17065;SDS011;23120;52.336;21.182;2022-10-03T13:31:50;2.00;;;1.10;;
17065;SDS011;23120;52.336;21.182;2022-10-03T13:34:31;3.67;;;1.50;;
17065;SDS011;23120;52.336;21.182;2022-10-03T13:37:03;1.40;;;1.20;;
17065;SDS011;23120;52.336;21.182;2022-10-03T13:39:39;3.37;;;1.53;;
17065;SDS011;23120;52.336;21.182;2022-10-03T13:42:13;3.30;;;1.30;;
17065;SDS011;23120;52.336;21.182;2022-10-03T13:44:46;3.40;;;1.30;;
17065;SDS011;23120;52.336;21.182;2022-10-03T13:47:24;4.47;;;1.70;;
17065;SDS011;23120;52.336;21.182;2022-10-03T13:49:56;5.40;;;1.90;;
17065;SDS011;23120;52.336;21.182;2022-10-03T13:52:32;2.60;;;1.50;;
17065;SDS011;23120;52.336;21.182;2022-10-03T14:03:09;1.30;;;1.00;;
17065;SDS011;23120;52.336;21.182;2022-10-03T14:05:56;1.60;;;1.33;;
17065;SDS011;23120;52.336;21.182;2022-10-03T14:08:52;3.13;;;1.40;;
17065;SDS011;23120;52.336;21.182;2022-10-03T14:11:31;4.97;;;1.40;;
17065;SDS011;23120;52.336;21.182;2022-10-03T14:14:12;1.50;;;1.40;;
17065;SDS011;23120;52.336;21.182;2022-10-03T14:17:00;3.40;;;1.17;;
17065;SDS011;23120;52.336;21.182;2022-10-03T14:19:36;1.37;;;1.00;;
17065;SDS011;23120;52.336;21.182;2022-10-03T14:22:12;1.83;;;1.33;;
17065;SDS011;23120;52.336;21.182;2022-10-03T14:24:56;3.83;;;1.60;;
17065;SDS011;23120;52.336;21.182;2022-10-03T14:27:41;1.37;;;1.27;;
17065;SDS011;23120;52.336;21.182;2022-10-03T14:30:12;2.90;;;1.50;;
17065;SDS011;23120;52.336;21.182;2022-10-03T14:32:44;1.77;;;1.23;;
17065;SDS011;23120;52.336;21.182;2022-10-03T14:35:21;4.73;;;1.50;;
17065;SDS011;23120;52.336;21.182;2022-10-03T14:37:59;4.03;;;1.53;;
17065;SDS011;23120;52.336;21.182;2022-10-03T14:40:34;4.03;;;1.50;;
17065;SDS011;23120;52.336;21.182;2022-10-03T14:43:14;2.10;;;1.90;;
17065;SDS011;23120;52.336;21.182;2022-10-03T14:45:57;3.70;;;1.80;;
17065;SDS011;23120;52.336;21.182;2022-10-03T14:48:28;2.90;;;1.87;;
17065;SDS011;23120;52.336;21.182;2022-10-03T14:51:04;3.17;;;1.40;;
17065;SDS011;23120;52.336;21.182;2022-10-03T14:53:37;1.77;;;1.30;;
17065;SDS011;23120;52.336;21.182;2022-10-03T14:56:11;2.07;;;1.30;;
17065;SDS011;23120;52.336;21.182;2022-10-03T14:58:43;2.63;;;1.30;;
17065;SDS011;23120;52.336;21.182;2022-10-03T15:01:12;3.33;;;1.70;;
17065;SDS011;23120;52.336;21.182;2022-10-03T15:03:44;2.50;;;1.47;;
17065;SDS011;23120;52.336;21.182;2022-10-03T15:06:33;2.97;;;1.37;;
17065;SDS011;23120;52.336;21.182;2022-10-03T15:09:15;1.80;;;1.40;;
17065;SDS011;23120;52.336;21.182;2022-10-03T15:11:46;3.77;;;1.70;;
17065;SDS011;23120;52.336;21.182;2022-10-03T15:14:17;3.37;;;1.80;;
17065;SDS011;23120;52.336;21.182;2022-10-03T15:16:48;1.90;;;1.67;;
17065;SDS011;23120;52.336;21.182;2022-10-03T15:19:19;2.07;;;1.63;;
17065;SDS011;23120;52.336;21.182;2022-10-03T15:21:55;1.53;;;1.27;;
17065;SDS011;23120;52.336;21.182;2022-10-03T15:24:29;2.93;;;1.53;;
17065;SDS011;23120;52.336;21.182;2022-10-03T15:26:59;1.63;;;1.43;;
17065;SDS011;23120;52.336;21.182;2022-10-03T15:29:29;4.60;;;1.43;;
17065;SDS011;23120;52.336;21.182;2022-10-03T15:31:58;2.63;;;1.33;;
17065;SDS011;23120;52.336;21.182;2022-10-03T15:34:27;3.00;;;1.70;;
17065;SDS011;23120;52.336;21.182;2022-10-03T15:36:59;3.80;;;1.83;;
17065;SDS011;23120;52.336;21.182;2022-10-03T15:39:32;2.70;;;1.90;;
17065;SDS011;23120;52.336;21.182;2022-10-03T15:42:02;2.47;;;2.00;;
17065;SDS011;23120;52.336;21.182;2022-10-03T15:44:48;3.97;;;2.00;;
17065;SDS011;23120;52.336;21.182;2022-10-03T15:47:18;3.53;;;2.60;;
17065;SDS011;23120;52.336;21.182;2022-10-03T15:49:47;3.10;;;1.87;;
17065;SDS011;23120;52.336;21.182;2022-10-03T15:52:20;5.20;;;1.60;;
17065;SDS011;23120;52.336;21.182;2022-10-03T15:54:53;3.83;;;1.20;;
17065;SDS011;23120;52.336;21.182;2022-10-03T15:57:25;1.60;;;1.50;;
17065;SDS011;23120;52.336;21.182;2022-10-03T15:59:56;2.90;;;1.40;;
17065;SDS011;23120;52.336;21.182;2022-10-03T16:02:26;2.27;;;1.40;;
17065;SDS011;23120;52.336;21.182;2022-10-03T16:04:58;3.10;;;1.50;;
17065;SDS011;23120;52.336;21.182;2022-10-03T16:07:32;3.83;;;1.97;;
17065;SDS011;23120;52.336;21.182;2022-10-03T16:13:24;4.07;;;2.27;;
17065;SDS011;23120;52.336;21.182;2022-10-03T16:16:06;7.20;;;2.60;;
17065;SDS011;23120;52.336;21.182;2022-10-03T16:21:45;8.30;;;3.50;;
17065;SDS011;23120;52.336;21.182;2022-10-03T16:24:18;5.73;;;3.30;;
17065;SDS011;23120;52.336;21.182;2022-10-03T16:26:54;6.17;;;3.60;;
17065;SDS011;23120;52.336;21.182;2022-10-03T16:29:25;6.07;;;3.27;;
17065;SDS011;23120;52.336;21.182;2022-10-03T16:31:56;12.67;;;6.47;;
17065;SDS011;23120;52.336;21.182;2022-10-03T16:34:29;16.67;;;11.80;;
17065;SDS011;23120;52.336;21.182;2022-10-03T16:36:58;14.97;;;12.50;;
17065;SDS011;23120;52.336;21.182;2022-10-03T16:39:27;14.30;;;12.67;;
17065;SDS011;23120;52.336;21.182;2022-10-03T16:41:59;12.50;;;11.10;;
17065;SDS011;23120;52.336;21.182;2022-10-03T16:44:37;11.60;;;10.50;;
17065;SDS011;23120;52.336;21.182;2022-10-03T16:47:08;7.73;;;7.03;;
17065;SDS011;23120;52.336;21.182;2022-10-03T16:49:37;7.73;;;5.00;;
17065;SDS011;23120;52.336;21.182;2022-10-03T16:52:28;8.40;;;5.43;;
17065;SDS011;23120;52.336;21.182;2022-10-03T16:54:59;7.40;;;4.37;;
17065;SDS011;23120;52.336;21.182;2022-10-03T16:57:31;6.50;;;4.70;;
17065;SDS011;23120;52.336;21.182;2022-10-03T17:00:10;6.33;;;4.53;;
17065;SDS011;23120;52.336;21.182;2022-10-03T17:02:41;4.33;;;2.67;;
17065;SDS011;23120;52.336;21.182;2022-10-03T17:05:08;5.57;;;4.23;;
17065;SDS011;23120;52.336;21.182;2022-10-03T17:07:38;3.90;;;3.50;;
17065;SDS011;23120;52.336;21.182;2022-10-03T17:10:19;7.03;;;4.10;;
17065;SDS011;23120;52.336;21.182;2022-10-03T17:12:57;8.63;;;4.70;;
17065;SDS011;23120;52.336;21.182;2022-10-03T17:15:28;8.23;;;4.97;;
17065;SDS011;23120;52.336;21.182;2022-10-03T17:18:01;5.77;;;5.13;;
17065;SDS011;23120;52.336;21.182;2022-10-03T17:20:37;8.87;;;4.33;;
17065;SDS011;23120;52.336;21.182;2022-10-03T17:23:14;4.57;;;4.13;;
17065;SDS011;23120;52.336;21.182;2022-10-03T17:25:56;5.73;;;3.97;;
17065;SDS011;23120;52.336;21.182;2022-10-03T17:28:30;4.73;;;3.80;;
17065;SDS011;23120;52.336;21.182;2022-10-03T17:31:04;4.53;;;3.97;;
17065;SDS011;23120;52.336;21.182;2022-10-03T17:33:34;4.97;;;4.10;;
17065;SDS011;23120;52.336;21.182;2022-10-03T17:36:26;4.47;;;3.80;;
17065;SDS011;23120;52.336;21.182;2022-10-03T17:39:04;5.70;;;3.50;;
17065;SDS011;23120;52.336;21.182;2022-10-03T17:41:42;3.93;;;3.40;;
17065;SDS011;23120;52.336;21.182;2022-10-03T17:44:17;3.77;;;2.93;;
17065;SDS011;23120;52.336;21.182;2022-10-03T17:46:55;4.23;;;3.00;;
17065;SDS011;23120;52.336;21.182;2022-10-03T17:49:30;6.60;;;2.80;;
17065;SDS011;23120;52.336;21.182;2022-10-03T17:52:14;4.50;;;3.03;;
17065;SDS011;23120;52.336;21.182;2022-10-03T17:54:43;7.13;;;2.87;;
17065;SDS011;23120;52.336;21.182;2022-10-03T17:57:15;4.00;;;3.00;;
17065;SDS011;23120;52.336;21.182;2022-10-03T17:59:49;5.77;;;3.60;;
17065;SDS011;23120;52.336;21.182;2022-10-03T18:02:23;6.73;;;2.93;;
17065;SDS011;23120;52.336;21.182;2022-10-03T18:04:59;3.53;;;2.67;;
17065;SDS011;23120;52.336;21.182;2022-10-03T18:07:34;6.50;;;2.87;;
17065;SDS011;23120;52.336;21.182;2022-10-03T18:10:02;3.27;;;2.97;;
17065;SDS011;23120;52.336;21.182;2022-10-03T18:12:42;5.07;;;2.80;;
17065;SDS011;23120;52.336;21.182;2022-10-03T18:15:32;5.43;;;2.60;;
17065;SDS011;23120;52.336;21.182;2022-10-03T18:18:24;3.23;;;2.60;;
17065;SDS011;23120;52.336;21.182;2022-10-03T18:21:32;5.70;;;2.77;;
17065;SDS011;23120;52.336;21.182;2022-10-03T18:24:15;3.17;;;2.57;;
17065;SDS011;23120;52.336;21.182;2022-10-03T18:26:53;6.33;;;3.17;;
17065;SDS011;23120;52.336;21.182;2022-10-03T18:29:30;5.57;;;3.20;;
17065;SDS011;23120;52.336;21.182;2022-10-03T18:32:10;3.33;;;2.73;;
17065;SDS011;23120;52.336;21.182;2022-10-03T18:34:43;5.30;;;3.77;;
17065;SDS011;23120;52.336;21.182;2022-10-03T18:40:18;5.53;;;4.47;;
17065;SDS011;23120;52.336;21.182;2022-10-03T18:42:48;7.63;;;5.73;;
17065;SDS011;23120;52.336;21.182;2022-10-03T18:45:18;14.40;;;9.60;;
17065;SDS011;23120;52.336;21.182;2022-10-03T18:47:49;14.60;;;9.67;;
17065;SDS011;23120;52.336;21.182;2022-10-03T18:50:19;10.07;;;7.23;;
17065;SDS011;23120;52.336;21.182;2022-10-03T18:52:51;8.83;;;5.83;;
17065;SDS011;23120;52.336;21.182;2022-10-03T18:55:28;5.10;;;4.03;;
17065;SDS011;23120;52.336;21.182;2022-10-03T18:58:04;6.17;;;3.90;;
17065;SDS011;23120;52.336;21.182;2022-10-03T19:00:46;4.80;;;3.50;;
17065;SDS011;23120;52.336;21.182;2022-10-03T19:03:17;4.93;;;3.63;;
17065;SDS011;23120;52.336;21.182;2022-10-03T19:05:50;6.10;;;3.80;;
17065;SDS011;23120;52.336;21.182;2022-10-03T19:08:23;5.50;;;4.10;;
17065;SDS011;23120;52.336;21.182;2022-10-03T19:10:53;6.90;;;3.83;;
17065;SDS011;23120;52.336;21.182;2022-10-03T19:13:27;4.70;;;4.20;;
17065;SDS011;23120;52.336;21.182;2022-10-03T19:16:04;5.90;;;3.60;;
17065;SDS011;23120;52.336;21.182;2022-10-03T19:18:41;6.73;;;3.80;;
17065;SDS011;23120;52.336;21.182;2022-10-03T19:21:13;6.37;;;3.93;;
17065;SDS011;23120;52.336;21.182;2022-10-03T19:23:45;6.23;;;4.37;;
17065;SDS011;23120;52.336;21.182;2022-10-03T19:26:19;8.13;;;4.40;;
17065;SDS011;23120;52.336;21.182;2022-10-03T19:28:49;8.23;;;3.93;;
17065;SDS011;23120;52.336;21.182;2022-10-03T19:31:21;7.97;;;3.80;;
17065;SDS011;23120;52.336;21.182;2022-10-03T19:33:52;7.30;;;4.87;;
17065;SDS011;23120;52.336;21.182;2022-10-03T19:36:25;7.40;;;4.37;;
17065;SDS011;23120;52.336;21.182;2022-10-03T19:38:54;5.00;;;3.83;;
17065;SDS011;23120;52.336;21.182;2022-10-03T19:41:25;5.63;;;4.10;;
17065;SDS011;23120;52.336;21.182;2022-10-03T19:43:55;4.57;;;3.77;;
17065;SDS011;23120;52.336;21.182;2022-10-03T19:46:33;4.73;;;4.20;;
17065;SDS011;23120;52.336;21.182;2022-10-03T19:49:17;6.47;;;4.03;;
17065;SDS011;23120;52.336;21.182;2022-10-03T19:51:48;8.90;;;4.53;;